Airfield :
LOGIN :

Register | Disclaimer

   EN    FR    IT 

 










Legend :    VFR   Marginal VFR   IFR   Intensive IFR   Very Intensive IFR
Visi :
Ceiling :
>= 8 km
>= 3000ft
5 to 8 km
1000 to 3000 ft
1500m to 5 km
500 to 1000 ft
800 to 1500m
200 to 500 ft
< 800m
< 200 ft
Symbols :   Thunderstorms  Fog  Heavy snow  Heavy precipitations  Wind > 20 kt
SIGMETs :     Misc.  Thunderstorms  Icing  Turbulence  Mountain Waves  Volcanic Ashes






- Airport Elevation : 53 ft
- IATA code : AGP


LEMG - Malaga

CURRENT METAR :
  • 040700Z VRB01KT 8000 FEW018 BKN025 26/23 Q1013 NOSIG

EXPIRED METARs :
  • 040630Z VRB01KT 8000 SCT012 BKN020 26/23 Q1013 NOSIG
  • 040600Z VRB02KT 8000 SCT012 BKN020 25/24 Q1012 NOSIG
  • 040530Z 10004KT 060V150 8000 SCT010 BKN017 25/23 Q1012 NOSIG
  • 040500Z 13004KT 9999 SCT010 BKN017 25/23 Q1012 NOSIG

TAF AMD TAF LEMG
Valid from the 04 at 06:00 until the 05 at 06:00 UTC


040630Z 0406/0506 12010KT CAVOK TX28/0415Z TN25/0505Z
PROB40
TEMPO 0406/0408 BKN010
PROB30
TEMPO 0412/0420 4000 RA SHRA FEW015TCU
BECMG 0422/0424 VRB03KT



MET'MAP, your aeronautical weather chart ! - Copyright ORBIFLY December 2007 - Disclaimer

ORBIFLY MET'MAP TEAM :

Programming & Development : Alexandra Zaïnal
Concept & original design : Baudouin d'Aumeries
Assistance for programming : Marc-Olivier Méhu
Technical & hardware support : Manuel Goepfert

Contact : metmap@orbifly.com




SOURCES & CREDITS :

   NOAA